Terminal Aerodrome Forecast
Issued by NWS Sioux Falls, SD

Home | Current Version | Previous Version | Graphics & Text | Print | Product List | Glossary On
Versions: 1 2 3 4 5 6 7 8 9 10 11 12 13 14 15 16 17 18 19 20 21
000
FTUS43 KFSD 061602 AAB
TAFFSD
TAF AMD
KFSD 061602Z 0616/0712 36015G22KT 3SM FU BKN015
      TEMPO 0616/0618 SCT015 BKN040
     FM061800 36017G24KT 3SM FU BKN035
     FM070100 36007KT P6SM SKC=

USA.gov is the U.S. government's official web portal to all federal, state and local government web resources and services.